Time;durP1;ratioP1;P1;durP2;ratioP2;P2;SDS_P1;SDS_P2;PMS_P1;PMS_P2;Temp;Humidity;BMP_temperature;BMP_pressure;BME280_temperature;BME280_humidity;BME280_pressure;Samples;Min_cycle;Max_cycle;Signal;HPM_P1;HPM_P2
2021/03/24 00:00:23;;;;;;;18.23;12.82;;;8.50;74.10;8.80;100290.00;;;;341574;28;84538;-86
2021/03/24 00:00:41;;;;;;;19.17;13.63;;;8.50;74.10;8.80;100298.00;;;;343794;28;92648;-87
2021/03/24 00:00:53;;;;;;;23.15;14.55;;;8.50;74.10;8.80;100290.00;;;;345536;28;87962;-87
2021/03/24 00:01:20;;;;;;;25.65;14.57;;;8.50;74.20;8.80;100301.00;;;;345455;28;89560;-86
2021/03/24 00:01:32;;;;;;;16.17;12.60;;;8.50;74.20;8.60;100290.00;;;;345431;28;87645;-87
2021/03/24 00:01:43;;;;;;;15.93;13.05;;;8.50;74.40;8.60;100292.00;;;;345068;28;93215;-87
2021/03/24 00:01:55;;;;;;;20.83;13.65;;;8.50;74.50;8.70;100291.00;;;;345651;28;87332;-87
2021/03/24 00:02:08;;;;;;;20.14;12.88;;;8.50;74.30;8.80;100296.00;;;;343936;28;92151;-88
2021/03/24 00:02:22;;;;;;;18.63;12.88;;;8.50;74.20;8.70;100293.00;;;;342777;28;87149;-86
2021/03/24 00:02:33;;;;;;;19.83;13.18;;;8.50;74.20;8.70;100290.00;;;;342615;28;92148;-87
2021/03/24 00:02:45;;;;;;;20.40;13.10;;;8.50;74.20;8.80;100302.00;;;;341492;28;86672;-87
2021/03/24 00:02:57;;;;;;;18.73;12.73;;;8.50;74.60;8.70;100292.00;;;;344110;28;89250;-88
2021/03/24 00:03:10;;;;;;;17.27;12.55;;;8.50;74.50;8.60;100301.00;;;;342872;28;86091;-86
2021/03/24 00:03:23;;;;;;;20.15;13.68;;;8.50;74.70;8.70;100297.00;;;;345172;28;92453;-87
2021/03/24 00:03:34;;;;;;;21.50;13.88;;;8.40;74.50;8.60;100297.00;;;;342380;28;86198;-87
2021/03/24 00:03:46;;;;;;;21.42;13.40;;;8.40;75.00;8.60;100295.00;;;;343683;28;91832;-86
2021/03/24 00:03:58;;;;;;;21.27;13.13;;;8.40;75.00;8.60;100299.00;;;;345167;28;86392;-87
2021/03/24 00:04:10;;;;;;;21.60;13.15;;;8.40;75.20;8.70;100295.00;;;;343913;28;92014;-87
2021/03/24 00:04:22;;;;;;;21.98;13.32;;;8.40;74.90;8.60;100289.00;;;;345473;28;85283;-87
2021/03/24 00:04:33;;;;;;;23.13;13.38;;;8.40;75.00;8.60;100294.00;;;;346626;28;92315;-89
2021/03/24 00:04:45;;;;;;;25.98;14.43;;;8.40;74.70;8.60;100293.00;;;;345524;28;85057;-87
2021/03/24 00:04:56;;;;;;;25.20;14.82;;;8.40;75.00;8.60;100289.00;;;;345163;28;90988;-87
2021/03/24 00:05:14;;;;;;;24.55;14.88;;;8.40;76.00;8.40;100290.00;;;;341352;28;87369;-89
2021/03/24 00:05:35;;;;;;;20.67;13.65;;;8.40;75.50;8.60;100297.00;;;;343804;28;92333;-86
2021/03/24 00:05:49;;;;;;;21.15;13.18;;;8.40;75.10;8.70;100294.00;;;;344076;28;85347;-86
2021/03/24 00:06:01;;;;;;;19.50;13.00;;;8.30;75.00;8.70;100292.00;;;;342457;28;93137;-87
2021/03/24 00:06:12;;;;;;;18.10;12.65;;;8.40;75.30;8.50;100288.00;;;;344134;28;86325;-86
2021/03/24 00:06:24;;;;;;;19.00;12.55;;;8.30;75.50;8.50;100293.00;;;;343940;28;91165;-87
2021/03/24 00:06:35;;;;;;;22.73;12.70;;;8.30;75.40;8.70;100288.00;;;;342639;28;86168;-88
2021/03/24 00:06:47;;;;;;;22.38;12.32;;;8.40;75.20;8.70;100291.00;;;;343829;28;92955;-86
2021/03/24 00:06:58;;;;;;;19.27;12.23;;;8.30;75.20;8.50;100292.00;;;;344136;28;87668;-86
2021/03/24 00:07:10;;;;;;;19.15;12.63;;;8.30;75.20;8.50;100287.00;;;;343905;28;92514;-87
2021/03/24 00:07:21;;;;;;;19.38;12.30;;;8.30;75.20;8.70;100294.00;;;;343818;28;86508;-87
2021/03/24 00:07:32;;;;;;;17.63;11.73;;;8.30;75.10;8.80;100288.00;;;;342327;28;91470;-87
2021/03/24 00:07:45;;;;;;;19.13;11.95;;;8.30;75.30;8.80;100283.00;;;;345650;28;86136;-87
2021/03/24 00:07:56;;;;;;;17.40;12.35;;;8.40;75.40;8.90;100289.00;;;;342525;28;93745;-87
2021/03/24 00:08:08;;;;;;;17.83;12.68;;;8.40;75.40;8.90;100288.00;;;;344225;28;86873;-88
2021/03/24 00:08:21;;;;;;;18.10;12.52;;;8.40;75.30;8.80;100289.00;;;;343914;28;92852;-86
2021/03/24 00:08:33;;;;;;;20.02;13.07;;;8.40;75.40;8.90;100288.00;;;;342921;28;87400;-87
2021/03/24 00:08:44;;;;;;;20.75;13.23;;;8.40;75.30;8.90;100285.00;;;;347816;27;90186;-87
2021/03/24 00:08:56;;;;;;;21.83;12.75;;;8.40;75.30;8.70;100289.00;;;;345516;28;86283;-87
2021/03/24 00:09:11;;;;;;;17.95;12.40;;;8.40;75.30;8.70;100288.00;;;;346573;28;91161;-88
2021/03/24 00:09:23;;;;;;;17.35;13.13;;;8.40;75.20;8.70;100284.00;;;;342831;28;87669;-87
2021/03/24 00:09:34;;;;;;;18.95;13.48;;;8.40;75.20;8.70;100279.00;;;;345155;28;89155;-87
2021/03/24 00:09:45;;;;;;;19.55;12.73;;;8.40;75.20;8.80;100292.00;;;;342862;28;87389;-86
2021/03/24 00:09:57;;;;;;;18.95;12.27;;;8.40;75.10;8.90;100288.00;;;;342431;28;93096;-86
2021/03/24 00:10:09;;;;;;;17.10;11.70;;;8.40;75.10;8.80;100288.00;;;;341421;28;86990;-87
2021/03/24 00:10:22;;;;;;;17.40;12.27;;;8.40;75.20;8.80;100291.00;;;;345517;28;88442;-86
2021/03/24 00:10:35;;;;;;;18.17;12.52;;;8.40;75.10;8.90;100283.00;;;;342795;28;87170;-88
2021/03/24 00:10:47;;;;;;;18.95;12.65;;;8.50;75.40;8.70;100287.00;;;;343956;28;91582;-88
2021/03/24 00:10:58;;;;;;;19.83;12.65;;;8.50;75.60;8.60;100295.00;;;;343967;28;87391;-87
2021/03/24 00:11:11;;;;;;;20.63;12.50;;;8.50;75.50;8.50;100292.00;;;;344011;28;92276;-86
2021/03/24 00:11:22;;;;;;;20.25;12.27;;;8.50;75.50;8.40;100292.00;;;;344168;28;87313;-86
2021/03/24 00:11:34;;;;;;;19.88;12.85;;;8.50;75.50;8.20;100288.00;;;;342517;28;91672;-86
2021/03/24 00:11:45;;;;;;;17.92;12.75;;;8.40;75.50;8.10;100303.00;;;;344190;28;83685;-86
2021/03/24 00:11:56;;;;;;;16.75;13.05;;;8.40;75.50;8.40;100288.00;;;;343837;28;92949;-87
2021/03/24 00:12:09;;;;;;;16.08;13.00;;;8.40;75.50;8.40;100291.00;;;;344175;28;87404;-87
2021/03/24 00:12:20;;;;;;;17.75;13.40;;;8.40;75.50;8.40;100289.00;;;;343850;28;91798;-87
2021/03/24 00:12:34;;;;;;;21.73;13.57;;;8.40;75.50;8.30;100297.00;;;;342614;28;87689;-86
2021/03/24 00:12:46;;;;;;;22.48;13.00;;;8.40;75.60;8.30;100295.00;;;;344025;28;89113;-86
2021/03/24 00:12:58;;;;;;;19.55;12.43;;;8.40;75.70;8.30;100297.00;;;;342437;28;86951;-87
2021/03/24 00:13:10;;;;;;;18.58;12.27;;;8.30;75.90;8.30;100292.00;;;;343946;28;91981;-87
2021/03/24 00:13:22;;;;;;;19.00;11.95;;;8.30;75.80;8.40;100291.00;;;;342892;28;87212;-87
2021/03/24 00:13:33;;;;;;;18.25;11.63;;;8.30;75.60;8.60;100293.00;;;;346459;28;91973;-87
2021/03/24 00:13:45;;;;;;;17.10;11.95;;;8.30;75.40;8.60;100292.00;;;;343852;28;85613;-87
2021/03/24 00:13:56;;;;;;;18.20;12.13;;;8.30;75.60;8.50;100280.00;;;;345244;28;92312;-87
2021/03/24 00:14:08;;;;;;;18.73;12.68;;;8.30;75.70;8.40;100297.00;;;;344272;28;87431;-86
2021/03/24 00:14:19;;;;;;;19.15;12.88;;;8.30;75.60;8.40;100293.00;;;;345364;28;92375;-87
2021/03/24 00:14:30;;;;;;;19.27;13.18;;;8.30;75.80;8.50;100292.00;;;;345592;28;86569;-87
2021/03/24 00:14:43;;;;;;;19.65;13.18;;;8.30;75.40;8.50;100293.00;;;;345181;28;92396;-88
2021/03/24 00:14:55;;;;;;;17.92;12.90;;;8.30;75.30;8.50;100299.00;;;;344345;28;85954;-86
2021/03/24 00:15:12;;;;;;;20.52;12.80;;;8.20;75.40;8.60;100293.00;;;;344012;28;90562;-87
2021/03/24 00:15:24;;;;;;;21.00;12.48;;;8.20;75.40;8.70;100292.00;;;;343060;28;87671;-87
2021/03/24 00:15:35;;;;;;;19.83;12.75;;;8.30;75.60;8.60;100299.00;;;;340870;28;91718;-87
2021/03/24 00:15:47;;;;;;;20.25;12.98;;;8.30;76.10;8.40;100298.00;;;;344304;28;84943;-87
2021/03/24 00:15:59;;;;;;;20.38;13.38;;;8.30;75.70;8.30;100293.00;;;;343612;28;92951;-87
2021/03/24 00:16:11;;;;;;;18.88;13.00;;;8.30;75.90;8.50;100293.00;;;;345614;28;86424;-87
2021/03/24 00:16:22;;;;;;;18.02;12.45;;;8.20;75.70;8.60;100299.00;;;;343991;28;90781;-87
2021/03/24 00:16:34;;;;;;;17.55;12.07;;;8.20;75.60;8.60;100292.00;;;;343991;28;86404;-86
2021/03/24 00:16:46;;;;;;;16.73;11.68;;;8.20;75.50;8.50;100298.00;;;;343924;28;91993;-86
2021/03/24 00:16:57;;;;;;;17.50;12.05;;;8.20;75.50;8.60;100295.00;;;;346838;28;87162;-87
2021/03/24 00:17:09;;;;;;;16.67;11.55;;;8.20;75.30;8.70;100292.00;;;;342639;28;92478;-87
2021/03/24 00:17:20;;;;;;;16.88;11.52;;;8.20;75.30;8.60;100292.00;;;;344235;28;87203;-86
2021/03/24 00:17:32;;;;;;;17.55;12.10;;;8.30;75.40;8.60;100299.00;;;;346603;28;91780;-87
2021/03/24 00:17:44;;;;;;;18.40;12.80;;;8.30;75.30;8.50;100291.00;;;;341575;28;86029;-86
2021/03/24 00:17:55;;;;;;;20.17;13.05;;;8.30;75.90;8.40;100286.00;;;;346612;28;93573;-87
2021/03/24 00:18:10;;;;;;;21.90;13.55;;;8.20;75.60;8.50;100298.00;;;;342733;28;87819;-87
2021/03/24 00:18:23;;;;;;;21.34;13.96;;;8.20;75.50;8.40;100299.00;;;;340868;28;92497;-87
2021/03/24 00:18:34;;;;;;;17.80;13.48;;;8.20;75.50;8.30;100293.00;;;;343926;28;83289;-87
2021/03/24 00:18:46;;;;;;;17.00;13.05;;;8.20;75.80;8.30;100293.00;;;;342534;28;92104;-86
2021/03/24 00:18:58;;;;;;;19.35;13.77;;;8.20;75.80;8.30;100297.00;;;;342878;28;86216;-87
2021/03/24 00:19:09;;;;;;;20.05;14.05;;;8.20;75.80;8.40;100289.00;;;;344050;28;89576;-87
2021/03/24 00:19:20;;;;;;;20.48;13.75;;;8.20;76.00;8.40;100292.00;;;;344189;28;86983;-87
2021/03/24 00:19:48;;;;;;;17.15;11.63;;;8.20;75.80;8.40;100290.00;;;;342418;28;91062;-87
2021/03/24 00:19:59;;;;;;;17.13;11.63;;;8.20;75.60;8.40;100299.00;;;;344019;28;85430;-87
2021/03/24 00:20:12;;;;;;;19.45;12.52;;;8.20;75.90;8.40;100294.00;;;;345316;28;91771;-87
2021/03/24 00:20:29;;;;;;;21.52;13.58;;;8.20;76.00;8.30;100293.00;;;;347082;28;86721;-86
2021/03/24 00:20:42;;;;;;;20.05;12.85;;;8.10;75.90;8.40;100293.00;;;;346384;28;92107;-86
2021/03/24 00:20:54;;;;;;;17.35;11.75;;;8.20;75.90;8.50;100297.00;;;;345626;28;87286;-86
2021/03/24 00:21:06;;;;;;;17.02;12.18;;;8.20;75.80;8.60;100297.00;;;;343950;28;91299;-87
2021/03/24 00:21:17;;;;;;;17.83;12.75;;;8.10;76.10;8.50;100295.00;;;;342924;28;87392;-86
2021/03/24 00:21:29;;;;;;;17.35;12.95;;;8.20;76.20;8.50;100297.00;;;;343328;28;96377;-87
2021/03/24 00:21:40;;;;;;;18.27;13.05;;;8.20;76.20;8.50;100294.00;;;;342653;28;87145;-88
2021/03/24 00:21:52;;;;;;;17.58;13.18;;;8.20;76.00;8.50;100297.00;;;;341458;28;92144;-87
2021/03/24 00:22:04;;;;;;;18.10;13.00;;;8.20;75.90;8.30;100306.00;;;;344167;28;87043;-87
2021/03/24 00:22:15;;;;;;;18.00;13.18;;;8.10;75.90;8.20;100301.00;;;;342564;28;92130;-86
2021/03/24 00:22:27;;;;;;;18.55;12.95;;;8.10;76.30;8.40;100296.00;;;;344261;28;87601;-86
2021/03/24 00:22:38;;;;;;;20.22;13.28;;;8.10;76.20;8.40;100303.00;;;;343899;28;92186;-87
2021/03/24 00:22:50;;;;;;;20.40;12.50;;;8.10;76.10;8.50;100290.00;;;;344255;28;88048;-87
2021/03/24 00:23:02;;;;;;;19.88;12.25;;;8.10;76.00;8.30;100304.00;;;;342322;28;92400;-88
2021/03/24 00:23:13;;;;;;;16.50;11.68;;;8.10;76.40;8.10;100299.00;;;;344351;28;84748;-86
2021/03/24 00:23:25;;;;;;;18.55;12.75;;;8.10;76.60;8.00;100295.00;;;;342563;28;90037;-86
2021/03/24 00:23:36;;;;;;;19.88;12.75;;;8.10;76.70;8.20;100301.00;;;;341425;28;87492;-86
2021/03/24 00:23:47;;;;;;;19.20;12.52;;;8.10;76.60;8.30;100299.00;;;;342600;28;92582;-87
2021/03/24 00:24:22;;;;;;;17.42;12.40;;;8.10;76.70;8.40;100295.00;;;;344192;28;86701;-87
2021/03/24 00:24:34;;;;;;;16.50;12.05;;;8.10;76.70;8.30;100304.00;;;;344876;28;92024;-86
2021/03/24 00:24:45;;;;;;;17.40;11.90;;;8.10;76.60;8.40;100298.00;;;;345533;28;87224;-86
2021/03/24 00:24:57;;;;;;;17.95;12.13;;;8.10;76.40;8.50;100301.00;;;;344817;28;91528;-86
2021/03/24 00:25:09;;;;;;;19.05;12.48;;;8.10;76.30;8.50;100294.00;;;;344185;28;87101;-86
2021/03/24 00:25:21;;;;;;;20.75;13.82;;;8.10;76.40;8.50;100297.00;;;;342235;28;92031;-86
2021/03/24 00:25:32;;;;;;;21.45;14.27;;;8.10;76.40;8.40;100294.00;;;;344191;28;87514;-86
2021/03/24 00:25:44;;;;;;;19.00;13.43;;;8.10;76.30;8.40;100296.00;;;;342448;28;92359;-87
2021/03/24 00:25:56;;;;;;;16.95;12.00;;;8.10;76.20;8.40;100290.00;;;;342619;28;87285;-87
2021/03/24 00:26:07;;;;;;;16.15;11.68;;;8.10;76.10;8.50;100296.00;;;;343866;28;91890;-86
2021/03/24 00:26:18;;;;;;;16.20;11.70;;;8.10;76.00;8.50;100286.00;;;;342929;28;87173;-87
2021/03/24 00:26:30;;;;;;;16.73;12.23;;;8.10;76.10;8.40;100294.00;;;;342531;28;92511;-86
2021/03/24 00:26:41;;;;;;;16.70;12.32;;;8.10;76.50;8.20;100300.00;;;;340195;28;87157;-86
2021/03/24 00:26:52;;;;;;;18.10;12.73;;;8.10;76.40;8.20;100295.00;;;;345235;28;91831;-87
2021/03/24 00:27:06;;;;;;;18.20;12.40;;;8.10;76.50;8.40;100293.00;;;;346853;28;88042;-86
2021/03/24 00:27:18;;;;;;;18.45;12.13;;;8.10;76.30;8.30;100294.00;;;;345309;28;92264;-87
2021/03/24 00:27:29;;;;;;;20.02;13.20;;;8.10;76.50;8.20;100298.00;;;;343274;28;87424;-87
2021/03/24 00:27:44;;;;;;;18.95;13.23;;;8.10;76.70;8.40;100294.00;;;;343781;28;92222;-87
2021/03/24 00:27:56;;;;;;;18.15;12.10;;;8.10;76.50;8.40;100296.00;;;;344312;28;87426;-87
2021/03/24 00:28:09;;;;;;;19.65;12.65;;;8.10;76.60;8.40;100289.00;;;;343938;28;91682;-87
2021/03/24 00:28:22;;;;;;;18.38;12.45;;;8.10;76.60;8.20;100290.00;;;;342975;28;86946;-86
2021/03/24 00:28:33;;;;;;;17.02;12.15;;;8.10;76.50;8.20;100301.00;;;;342600;28;93499;-87
2021/03/24 00:28:46;;;;;;;18.80;13.05;;;8.10;76.60;8.10;100295.00;;;;341562;28;86630;-86
2021/03/24 00:28:57;;;;;;;22.60;13.65;;;8.10;77.00;8.10;100294.00;;;;341217;28;91489;-87
2021/03/24 00:29:09;;;;;;;23.80;13.68;;;8.00;76.90;8.10;100298.00;;;;342841;28;87561;-86
2021/03/24 00:29:20;;;;;;;20.58;12.98;;;8.00;76.90;8.10;100297.00;;;;345327;28;91916;-85
2021/03/24 00:29:31;;;;;;;19.17;12.98;;;8.00;77.10;8.10;100292.00;;;;342779;28;87196;-86
2021/03/24 00:29:43;;;;;;;18.95;12.88;;;8.00;77.10;8.10;100289.00;;;;342624;28;92066;-86
2021/03/24 00:29:54;;;;;;;18.95;12.75;;;8.00;77.00;8.10;100290.00;;;;344266;28;87058;-87
2021/03/24 00:30:07;;;;;;;17.85;12.60;;;8.00;77.10;7.90;100295.00;;;;342513;28;92059;-87
2021/03/24 00:30:23;;;;;;;18.02;12.23;;;8.00;77.30;7.90;100294.00;;;;344265;28;87375;-86
2021/03/24 00:30:38;;;;;;;20.52;12.38;;;8.00;77.50;8.10;100297.00;;;;345264;28;91765;-87
2021/03/24 00:30:53;;;;;;;19.50;12.45;;;8.00;77.10;8.10;100305.00;;;;345260;28;86776;-87
2021/03/24 00:31:04;;;;;;;18.15;12.55;;;8.00;77.00;8.20;100289.00;;;;345308;28;92186;-86
2021/03/24 00:31:16;;;;;;;17.10;12.43;;;7.90;76.70;8.20;100290.00;;;;346911;28;87963;-87
2021/03/24 00:31:27;;;;;;;16.95;12.77;;;7.90;76.80;8.20;100290.00;;;;344318;28;89345;-87
2021/03/24 00:31:39;;;;;;;19.15;13.13;;;8.00;77.00;8.40;100291.00;;;;344173;28;86992;-85
2021/03/24 00:31:51;;;;;;;20.02;13.30;;;8.00;77.00;8.40;100288.00;;;;342714;28;89508;-87
2021/03/24 00:32:03;;;;;;;17.83;12.70;;;8.00;77.20;8.50;100288.00;;;;342803;28;87371;-86
2021/03/24 00:32:14;;;;;;;19.23;12.98;;;8.00;77.30;8.40;100297.00;;;;341026;28;93230;-86
2021/03/24 00:32:26;;;;;;;19.23;13.18;;;8.00;77.30;8.30;100293.00;;;;344314;28;86479;-87
2021/03/24 00:32:38;;;;;;;19.83;13.63;;;8.00;77.20;8.40;100287.00;;;;343938;28;92438;-86
2021/03/24 00:32:49;;;;;;;18.80;13.68;;;8.00;77.10;8.30;100296.00;;;;344305;28;86217;-87
2021/03/24 00:33:01;;;;;;;19.48;13.80;;;8.00;77.20;8.30;100295.00;;;;343975;28;92405;-86
2021/03/24 00:33:15;;;;;;;19.85;13.25;;;8.00;77.00;8.20;100295.00;;;;342793;28;86402;-87
2021/03/24 00:33:27;;;;;;;18.35;12.55;;;8.00;77.40;8.30;100290.00;;;;341518;28;91840;-87
2021/03/24 00:33:39;;;;;;;18.30;12.63;;;8.00;77.50;8.40;100288.00;;;;345573;28;86490;-87
2021/03/24 00:33:51;;;;;;;17.40;12.88;;;8.00;76.80;8.40;100295.00;;;;342685;28;92885;-87
2021/03/24 00:34:02;;;;;;;18.38;12.50;;;8.00;76.90;8.40;100288.00;;;;342735;28;87160;-86
2021/03/24 00:34:14;;;;;;;18.58;12.55;;;8.00;76.90;8.50;100289.00;;;;343934;28;92412;-86
2021/03/24 00:34:25;;;;;;;19.42;12.73;;;8.00;76.80;8.50;100288.00;;;;346735;28;87134;-87
2021/03/24 00:34:37;;;;;;;19.70;12.57;;;8.00;77.00;8.50;100290.00;;;;346267;28;91934;-86
2021/03/24 00:34:48;;;;;;;17.92;11.95;;;8.10;77.00;8.40;100291.00;;;;345526;28;87914;-86
2021/03/24 00:34:59;;;;;;;17.45;12.27;;;8.00;76.70;8.20;100301.00;;;;341315;28;90605;-86
2021/03/24 00:35:11;;;;;;;17.35;12.30;;;8.00;76.80;8.10;100297.00;;;;342810;28;87053;-87
2021/03/24 00:35:22;;;;;;;16.00;11.80;;;8.00;77.00;8.20;100293.00;;;;344025;28;90520;-87
2021/03/24 00:35:34;;;;;;;17.08;11.80;;;8.10;77.00;8.20;100294.00;;;;341835;28;87301;-86
2021/03/24 00:35:46;;;;;;;19.27;12.45;;;8.00;77.70;8.10;100290.00;;;;343039;28;90960;-86
2021/03/24 00:35:57;;;;;;;19.92;12.85;;;8.00;77.30;8.30;100280.00;;;;344629;28;87325;-86
2021/03/24 00:36:09;;;;;;;17.88;12.63;;;8.00;77.20;8.30;100288.00;;;;342595;28;92810;-86
2021/03/24 00:36:20;;;;;;;16.08;11.68;;;8.00;77.00;8.30;100299.00;;;;341632;28;85068;-87
2021/03/24 00:36:32;;;;;;;15.75;12.00;;;8.00;77.00;8.20;100300.00;;;;344113;28;93419;-88
2021/03/24 00:36:43;;;;;;;15.95;11.70;;;8.00;77.30;8.30;100293.00;;;;343027;28;86922;-87
2021/03/24 00:36:54;;;;;;;17.88;12.95;;;8.00;77.10;8.10;100305.00;;;;343450;28;91560;-86
2021/03/24 00:37:06;;;;;;;17.73;12.60;;;8.00;77.30;8.00;100292.00;;;;343235;28;87519;-87
2021/03/24 00:37:17;;;;;;;20.55;12.68;;;8.00;77.60;8.00;100301.00;;;;344442;28;90266;-86
2021/03/24 00:37:29;;;;;;;20.58;12.15;;;8.00;77.70;8.10;100291.00;;;;344564;28;87176;-87
2021/03/24 00:37:40;;;;;;;21.00;12.93;;;8.00;78.00;8.10;100295.00;;;;342907;28;91580;-87
2021/03/24 00:37:52;;;;;;;17.88;12.80;;;7.90;77.40;8.10;100298.00;;;;344643;28;87007;-86
2021/03/24 00:38:03;;;;;;;18.52;12.65;;;7.90;77.70;8.20;100293.00;;;;344165;28;92277;-86
2021/03/24 00:38:16;;;;;;;19.50;12.43;;;7.90;77.20;8.30;100293.00;;;;345779;28;87098;-87
2021/03/24 00:38:27;;;;;;;19.55;12.00;;;7.90;77.90;8.30;100290.00;;;;344135;28;92842;-86
2021/03/24 00:38:38;;;;;;;17.65;12.02;;;8.00;77.50;8.10;100292.00;;;;344475;28;85929;-87
2021/03/24 00:38:50;;;;;;;18.42;12.68;;;8.00;77.70;8.00;100293.00;;;;344240;28;92543;-87
2021/03/24 00:39:01;;;;;;;18.63;13.13;;;8.00;77.80;8.00;100291.00;;;;344539;28;86037;-86
2021/03/24 00:39:17;;;;;;;18.42;12.82;;;7.90;77.80;7.90;100290.00;;;;345705;28;89136;-86
2021/03/24 00:39:28;;;;;;;20.50;12.80;;;7.90;77.90;7.80;100293.00;;;;343838;28;87325;-87
2021/03/24 00:39:40;;;;;;;21.17;13.48;;;7.90;77.80;8.10;100296.00;;;;344282;28;91611;-86
2021/03/24 00:39:51;;;;;;;20.83;12.63;;;7.90;77.70;8.20;100288.00;;;;344406;28;86253;-86
2021/03/24 00:40:06;;;;;;;21.25;12.23;;;7.90;77.70;8.00;100297.00;;;;343070;28;87993;-87
2021/03/24 00:40:31;;;;;;;19.48;12.85;;;7.90;77.80;7.90;100293.00;;;;341899;28;84916;-88
2021/03/24 00:40:46;;;;;;;18.70;12.88;;;7.90;77.90;8.00;100291.00;;;;345555;28;90644;-86
2021/03/24 00:40:58;;;;;;;20.60;12.40;;;7.90;78.00;8.10;100298.00;;;;344563;28;87333;-87
2021/03/24 00:41:10;;;;;;;17.60;11.65;;;7.90;78.10;8.10;100298.00;;;;347004;28;91570;-87
2021/03/24 00:41:21;;;;;;;16.90;11.48;;;7.90;78.10;8.10;100294.00;;;;345905;28;87295;-86
2021/03/24 00:41:33;;;;;;;17.63;11.75;;;7.90;77.90;8.20;100299.00;;;;344230;28;92151;-86
2021/03/24 00:41:44;;;;;;;17.77;11.68;;;7.90;77.70;8.20;100295.00;;;;344090;28;87271;-87
2021/03/24 00:41:55;;;;;;;16.67;11.50;;;7.80;77.70;8.00;100299.00;;;;345382;28;91440;-87
2021/03/24 00:42:08;;;;;;;18.50;12.30;;;7.90;78.10;8.00;100296.00;;;;344308;28;86706;-86
2021/03/24 00:42:19;;;;;;;19.90;12.75;;;7.80;78.20;8.00;100295.00;;;;343994;28;89429;-87
2021/03/24 00:42:31;;;;;;;20.55;13.27;;;7.80;78.20;7.90;100288.00;;;;347010;28;87480;-86
2021/03/24 00:42:42;;;;;;;19.50;13.45;;;7.80;78.40;7.80;100289.00;;;;342390;28;90660;-86
2021/03/24 00:42:53;;;;;;;17.54;12.98;;;7.80;78.60;7.70;100296.00;;;;344493;28;87573;-87
2021/03/24 00:43:05;;;;;;;17.27;12.75;;;7.80;78.60;7.60;100298.00;;;;345245;28;91956;-87
2021/03/24 00:43:17;;;;;;;18.65;12.52;;;7.80;78.50;7.60;100292.00;;;;344205;28;86625;-87
2021/03/24 00:43:29;;;;;;;18.23;12.43;;;7.80;78.60;7.70;100291.00;;;;346108;28;91655;-87
2021/03/24 00:43:40;;;;;;;19.38;12.95;;;7.80;78.70;7.70;100295.00;;;;344266;28;86139;-86
2021/03/24 00:43:52;;;;;;;19.30;13.40;;;7.80;78.50;7.80;100291.00;;;;345328;28;92883;-86
2021/03/24 00:44:03;;;;;;;18.96;12.70;;;7.80;78.30;7.80;100290.00;;;;345435;28;87734;-87
2021/03/24 00:44:15;;;;;;;18.23;12.60;;;7.70;78.40;7.90;100302.00;;;;343996;28;91251;-86
2021/03/24 00:44:26;;;;;;;19.55;13.18;;;7.80;78.30;7.80;100293.00;;;;342852;28;87044;-86
2021/03/24 00:44:37;;;;;;;19.15;13.73;;;7.70;78.40;7.70;100289.00;;;;343883;28;92725;-88
2021/03/24 00:44:49;;;;;;;19.48;13.70;;;7.70;78.50;7.60;100298.00;;;;344144;28;87339;-87
2021/03/24 00:45:00;;;;;;;17.17;12.65;;;7.70;79.50;7.60;100298.00;;;;342637;28;91703;-86
2021/03/24 00:45:13;;;;;;;15.75;12.05;;;7.70;79.00;7.60;100295.00;;;;342817;28;85217;-87
2021/03/24 00:45:24;;;;;;;14.52;12.23;;;7.70;79.10;7.60;100295.00;;;;345247;28;92549;-87
2021/03/24 00:45:36;;;;;;;15.48;12.80;;;7.60;79.10;7.50;100295.00;;;;346708;28;86031;-87
2021/03/24 00:45:48;;;;;;;15.57;12.38;;;7.60;78.90;7.60;100292.00;;;;343937;28;91624;-87
2021/03/24 00:45:59;;;;;;;16.77;12.13;;;7.60;78.90;7.80;100304.00;;;;342550;28;86001;-86
2021/03/24 00:46:11;;;;;;;17.52;12.48;;;7.60;78.70;7.90;100301.00;;;;343784;28;92763;-87
2021/03/24 00:46:22;;;;;;;17.50;12.98;;;7.60;78.50;8.00;100296.00;;;;341251;28;87285;-87
2021/03/24 00:46:33;;;;;;;17.88;13.43;;;7.60;78.60;7.90;100293.00;;;;341046;28;90245;-87
2021/03/24 00:46:45;;;;;;;19.20;13.65;;;7.60;78.70;7.90;100297.00;;;;342842;28;87252;-86
2021/03/24 00:46:57;;;;;;;20.15;13.73;;;7.60;78.60;7.80;100301.00;;;;345319;28;91642;-87
2021/03/24 00:47:08;;;;;;;18.55;13.73;;;7.60;78.40;7.80;100294.00;;;;344251;28;87280;-86
2021/03/24 00:47:20;;;;;;;17.45;13.02;;;7.60;78.80;7.70;100292.00;;;;342338;28;90698;-86
2021/03/24 00:47:32;;;;;;;18.02;13.25;;;7.60;79.30;7.60;100296.00;;;;341409;28;86001;-87
2021/03/24 00:47:43;;;;;;;17.52;12.60;;;7.60;79.50;7.80;100296.00;;;;342572;28;91425;-86
2021/03/24 00:47:55;;;;;;;18.00;12.93;;;7.60;79.30;7.70;100294.00;;;;344214;28;86060;-88
2021/03/24 00:48:11;;;;;;;18.73;13.30;;;7.60;79.30;7.70;100290.00;;;;346481;28;91016;-86
2021/03/24 00:48:31;;;;;;;20.02;13.43;;;7.60;79.20;7.80;100297.00;;;;342192;28;87515;-87
2021/03/24 00:48:43;;;;;;;18.95;12.25;;;7.60;79.80;8.00;100290.00;;;;344656;28;92576;-86
2021/03/24 00:48:55;;;;;;;17.67;11.93;;;7.60;79.10;8.00;100297.00;;;;342745;28;87006;-86
2021/03/24 00:49:06;;;;;;;18.10;12.68;;;7.60;79.10;7.90;100298.00;;;;343922;28;92722;-87
2021/03/24 00:49:18;;;;;;;19.00;13.43;;;7.60;79.00;8.00;100297.00;;;;344169;28;86801;-86
2021/03/24 00:49:29;;;;;;;20.38;13.73;;;7.60;79.10;8.10;100290.00;;;;345082;28;92613;-86
2021/03/24 00:49:41;;;;;;;20.58;13.73;;;7.60;79.10;8.20;100295.00;;;;345608;28;87252;-86
2021/03/24 00:50:17;;;;;;;17.73;12.13;;;7.70;79.20;8.10;100291.00;;;;343894;28;90764;-87
2021/03/24 00:50:30;;;;;;;15.50;11.40;;;7.70;79.00;8.10;100297.00;;;;344128;28;87355;-87
2021/03/24 00:50:41;;;;;;;16.77;11.50;;;7.70;78.80;8.10;100294.00;;;;343823;28;91636;-87
2021/03/24 00:50:54;;;;;;;19.42;11.93;;;7.70;78.70;8.10;100288.00;;;;344241;28;87191;-87
2021/03/24 00:51:06;;;;;;;20.58;12.30;;;7.70;78.60;8.00;100291.00;;;;343857;28;92959;-87
2021/03/24 00:51:18;;;;;;;19.17;12.00;;;7.70;78.80;7.90;100287.00;;;;344195;28;86167;-86
2021/03/24 00:51:29;;;;;;;17.88;12.07;;;7.70;78.80;7.90;100287.00;;;;343111;28;90760;-87
2021/03/24 00:51:41;;;;;;;17.70;12.15;;;7.70;78.70;7.70;100297.00;;;;345414;28;86426;-86
2021/03/24 00:51:52;;;;;;;16.27;12.15;;;7.70;78.80;7.60;100289.00;;;;342475;28;91407;-86
2021/03/24 00:52:04;;;;;;;17.55;12.93;;;7.70;79.00;7.60;100291.00;;;;342821;28;86366;-87
2021/03/24 00:52:16;;;;;;;18.50;13.00;;;7.70;79.30;7.50;100289.00;;;;345248;28;89135;-88
2021/03/24 00:52:27;;;;;;;19.23;12.80;;;7.60;79.10;7.80;100288.00;;;;342498;28;87420;-88
2021/03/24 00:52:39;;;;;;;17.15;12.25;;;7.70;79.20;8.00;100293.00;;;;343762;28;91013;-87
2021/03/24 00:52:50;;;;;;;17.40;11.95;;;7.70;79.10;8.10;100290.00;;;;344167;28;87252;-86
2021/03/24 00:53:03;;;;;;;16.35;12.48;;;7.70;79.10;8.00;100293.00;;;;343858;28;91783;-86
2021/03/24 00:53:16;;;;;;;18.08;12.07;;;7.70;79.10;8.10;100292.00;;;;344221;28;87503;-87
2021/03/24 00:53:27;;;;;;;16.88;11.18;;;7.70;79.00;8.10;100288.00;;;;342482;28;92290;-87
2021/03/24 00:53:38;;;;;;;16.90;11.88;;;7.70;78.90;8.10;100288.00;;;;344163;28;86561;-86
2021/03/24 00:53:50;;;;;;;16.90;12.07;;;7.70;78.80;8.10;100292.00;;;;345377;28;91816;-86
2021/03/24 00:54:01;;;;;;;17.70;12.10;;;7.70;78.70;8.10;100292.00;;;;345542;28;86002;-86
2021/03/24 00:54:13;;;;;;;18.08;11.93;;;7.70;78.70;8.10;100286.00;;;;342639;28;89776;-86
2021/03/24 00:54:24;;;;;;;18.05;12.57;;;7.70;78.60;8.20;100289.00;;;;345164;28;87743;-87
2021/03/24 00:54:35;;;;;;;19.88;13.30;;;7.70;78.70;8.20;100293.00;;;;342193;28;91824;-87
2021/03/24 00:54:47;;;;;;;18.92;13.40;;;7.70;78.80;8.00;100283.00;;;;345415;28;88026;-87
2021/03/24 00:54:58;;;;;;;18.10;12.85;;;7.80;78.90;8.00;100290.00;;;;343993;28;92737;-87
2021/03/24 00:55:11;;;;;;;18.48;12.70;;;7.70;78.80;8.10;100299.00;;;;342839;28;87744;-87